sensor_id;sensor_type;location;lat;lon;timestamp;temperature;humidity
19947;DHT22;10135;50.702;7.276;2024-02-26T06:00:10;10.10;59.80
19947;DHT22;10135;50.702;7.276;2024-02-26T06:02:12;10.10;59.60
19947;DHT22;10135;50.702;7.276;2024-02-26T06:04:13;10.10;59.70
19947;DHT22;10135;50.702;7.276;2024-02-26T06:06:14;10.10;59.70
19947;DHT22;10135;50.702;7.276;2024-02-26T06:08:15;10.10;59.80
19947;DHT22;10135;50.702;7.276;2024-02-26T06:10:16;10.10;59.90
19947;DHT22;10135;50.702;7.276;2024-02-26T06:12:16;10.00;59.90
19947;DHT22;10135;50.702;7.276;2024-02-26T06:14:17;10.10;59.90
19947;DHT22;10135;50.702;7.276;2024-02-26T06:16:18;10.00;60.00
19947;DHT22;10135;50.702;7.276;2024-02-26T06:18:19;10.10;60.10
19947;DHT22;10135;50.702;7.276;2024-02-26T06:20:20;10.10;60.10
19947;DHT22;10135;50.702;7.276;2024-02-26T06:22:20;10.10;60.20
19947;DHT22;10135;50.702;7.276;2024-02-26T06:24:21;10.10;60.20
19947;DHT22;10135;50.702;7.276;2024-02-26T06:26:22;10.10;60.20
19947;DHT22;10135;50.702;7.276;2024-02-26T06:28:23;10.00;60.20
19947;DHT22;10135;50.702;7.276;2024-02-26T06:30:24;10.10;60.30
19947;DHT22;10135;50.702;7.276;2024-02-26T06:32:24;10.10;60.30
19947;DHT22;10135;50.702;7.276;2024-02-26T06:34:28;10.00;60.40
19947;DHT22;10135;50.702;7.276;2024-02-26T06:36:28;10.00;60.40
19947;DHT22;10135;50.702;7.276;2024-02-26T06:38:29;10.10;60.40
19947;DHT22;10135;50.702;7.276;2024-02-26T06:40:30;10.00;60.40
19947;DHT22;10135;50.702;7.276;2024-02-26T06:42:30;10.00;60.40
19947;DHT22;10135;50.702;7.276;2024-02-26T06:44:31;10.10;60.60
19947;DHT22;10135;50.702;7.276;2024-02-26T06:46:32;10.10;60.60
19947;DHT22;10135;50.702;7.276;2024-02-26T06:48:33;10.00;60.60
19947;DHT22;10135;50.702;7.276;2024-02-26T06:50:33;10.00;60.60
19947;DHT22;10135;50.702;7.276;2024-02-26T06:52:34;10.00;60.60
19947;DHT22;10135;50.702;7.276;2024-02-26T06:54:35;10.00;60.70
19947;DHT22;10135;50.702;7.276;2024-02-26T06:56:35;10.00;60.80
19947;DHT22;10135;50.702;7.276;2024-02-26T06:58:36;10.00;60.80
19947;DHT22;10135;50.702;7.276;2024-02-26T07:00:36;10.00;61.00
19947;DHT22;10135;50.702;7.276;2024-02-26T07:02:37;10.10;61.00
19947;DHT22;10135;50.702;7.276;2024-02-26T07:04:38;10.00;61.00
19947;DHT22;10135;50.702;7.276;2024-02-26T07:06:38;10.10;61.00
19947;DHT22;10135;50.702;7.276;2024-02-26T07:08:39;10.00;61.00
19947;DHT22;10135;50.702;7.276;2024-02-26T07:10:40;10.10;61.10
19947;DHT22;10135;50.702;7.276;2024-02-26T07:12:40;10.10;61.20
19947;DHT22;10135;50.702;7.276;2024-02-26T07:14:41;10.10;61.20
19947;DHT22;10135;50.702;7.276;2024-02-26T07:16:42;10.10;61.10
19947;DHT22;10135;50.702;7.276;2024-02-26T07:18:43;10.10;61.20
19947;DHT22;10135;50.702;7.276;2024-02-26T07:20:43;10.00;61.20
19947;DHT22;10135;50.702;7.276;2024-02-26T07:22:44;10.00;61.20
19947;DHT22;10135;50.702;7.276;2024-02-26T07:24:45;10.10;61.40
19947;DHT22;10135;50.702;7.276;2024-02-26T07:26:46;10.10;61.40
19947;DHT22;10135;50.702;7.276;2024-02-26T07:28:46;10.10;61.40
19947;DHT22;10135;50.702;7.276;2024-02-26T07:30:47;10.10;61.50
19947;DHT22;10135;50.702;7.276;2024-02-26T07:32:47;10.10;61.50
19947;DHT22;10135;50.702;7.276;2024-02-26T07:34:48;10.10;61.40
19947;DHT22;10135;50.702;7.276;2024-02-26T07:36:49;10.10;62.10
19947;DHT22;10135;50.702;7.276;2024-02-26T07:38:49;10.00;61.50
19947;DHT22;10135;50.702;7.276;2024-02-26T07:40:52;10.00;61.50
19947;DHT22;10135;50.702;7.276;2024-02-26T07:42:53;10.00;61.50
19947;DHT22;10135;50.702;7.276;2024-02-26T07:44:53;10.00;61.70
19947;DHT22;10135;50.702;7.276;2024-02-26T07:46:54;10.00;61.70
19947;DHT22;10135;50.702;7.276;2024-02-26T07:48:55;10.00;61.70
19947;DHT22;10135;50.702;7.276;2024-02-26T07:50:55;10.00;61.80
19947;DHT22;10135;50.702;7.276;2024-02-26T07:52:56;10.00;61.90
19947;DHT22;10135;50.702;7.276;2024-02-26T07:54:57;10.10;61.90
19947;DHT22;10135;50.702;7.276;2024-02-26T07:56:58;10.10;61.90
19947;DHT22;10135;50.702;7.276;2024-02-26T07:58:59;10.10;61.90
19947;DHT22;10135;50.702;7.276;2024-02-26T08:00:59;10.00;61.90
19947;DHT22;10135;50.702;7.276;2024-02-26T08:03:00;10.00;61.90
19947;DHT22;10135;50.702;7.276;2024-02-26T08:05:01;10.10;61.90
19947;DHT22;10135;50.702;7.276;2024-02-26T08:07:02;10.10;62.10
19947;DHT22;10135;50.702;7.276;2024-02-26T08:09:02;10.10;62.10
19947;DHT22;10135;50.702;7.276;2024-02-26T08:11:04;10.10;62.10
19947;DHT22;10135;50.702;7.276;2024-02-26T08:13:05;10.00;62.00
19947;DHT22;10135;50.702;7.276;2024-02-26T08:15:06;10.00;62.10
19947;DHT22;10135;50.702;7.276;2024-02-26T08:17:08;10.00;62.20
19947;DHT22;10135;50.702;7.276;2024-02-26T08:19:08;10.00;62.10
19947;DHT22;10135;50.702;7.276;2024-02-26T08:21:11;10.00;62.10
19947;DHT22;10135;50.702;7.276;2024-02-26T08:23:12;10.00;62.20
19947;DHT22;10135;50.702;7.276;2024-02-26T08:25:13;10.00;62.30
19947;DHT22;10135;50.702;7.276;2024-02-26T08:27:13;10.00;62.30
19947;DHT22;10135;50.702;7.276;2024-02-26T08:29:14;10.00;62.30
19947;DHT22;10135;50.702;7.276;2024-02-26T08:31:15;10.00;62.30
19947;DHT22;10135;50.702;7.276;2024-02-26T08:33:15;10.00;62.30
19947;DHT22;10135;50.702;7.276;2024-02-26T08:35:16;10.00;62.30
19947;DHT22;10135;50.702;7.276;2024-02-26T08:37:17;10.00;62.40
19947;DHT22;10135;50.702;7.276;2024-02-26T08:39:17;10.00;62.50
19947;DHT22;10135;50.702;7.276;2024-02-26T08:41:18;10.00;62.40
19947;DHT22;10135;50.702;7.276;2024-02-26T08:43:19;10.00;62.50
19947;DHT22;10135;50.702;7.276;2024-02-26T08:45:20;10.00;62.50
19947;DHT22;10135;50.702;7.276;2024-02-26T08:47:20;10.00;62.50
19947;DHT22;10135;50.702;7.276;2024-02-26T08:49:21;10.00;62.60
19947;DHT22;10135;50.702;7.276;2024-02-26T08:51:23;10.00;62.70
19947;DHT22;10135;50.702;7.276;2024-02-26T08:53:24;10.00;62.60
19947;DHT22;10135;50.702;7.276;2024-02-26T08:55:27;10.00;62.70
19947;DHT22;10135;50.702;7.276;2024-02-26T08:57:27;10.00;62.70
19947;DHT22;10135;50.702;7.276;2024-02-26T08:59:28;10.00;62.60
19947;DHT22;10135;50.702;7.276;2024-02-26T09:01:31;9.90;62.70
19947;DHT22;10135;50.702;7.276;2024-02-26T09:03:32;9.90;62.70
19947;DHT22;10135;50.702;7.276;2024-02-26T09:05:32;9.90;62.70
19947;DHT22;10135;50.702;7.276;2024-02-26T09:07:33;9.90;62.70
19947;DHT22;10135;50.702;7.276;2024-02-26T09:09:34;9.90;62.90
19947;DHT22;10135;50.702;7.276;2024-02-26T09:11:34;9.90;62.80
19947;DHT22;10135;50.702;7.276;2024-02-26T09:13:35;9.90;62.90
19947;DHT22;10135;50.702;7.276;2024-02-26T09:15:35;9.90;62.90
19947;DHT22;10135;50.702;7.276;2024-02-26T09:17:36;9.90;62.90
19947;DHT22;10135;50.702;7.276;2024-02-26T09:19:37;9.90;63.00
19947;DHT22;10135;50.702;7.276;2024-02-26T09:21:42;9.90;63.10
19947;DHT22;10135;50.702;7.276;2024-02-26T09:23:46;9.90;63.30
19947;DHT22;10135;50.702;7.276;2024-02-26T09:25:47;9.90;63.00
19947;DHT22;10135;50.702;7.276;2024-02-26T09:27:47;10.00;63.20
19947;DHT22;10135;50.702;7.276;2024-02-26T09:29:48;10.00;63.10
19947;DHT22;10135;50.702;7.276;2024-02-26T09:31:49;10.00;63.20
19947;DHT22;10135;50.702;7.276;2024-02-26T09:33:49;10.00;63.30
19947;DHT22;10135;50.702;7.276;2024-02-26T09:35:50;10.00;63.30
19947;DHT22;10135;50.702;7.276;2024-02-26T09:37:50;10.00;63.20
19947;DHT22;10135;50.702;7.276;2024-02-26T09:39:51;10.00;63.30
19947;DHT22;10135;50.702;7.276;2024-02-26T09:41:52;10.00;63.30
19947;DHT22;10135;50.702;7.276;2024-02-26T09:43:56;10.00;63.20
19947;DHT22;10135;50.702;7.276;2024-02-26T09:45:58;10.10;63.50
19947;DHT22;10135;50.702;7.276;2024-02-26T09:47:59;10.00;63.30
19947;DHT22;10135;50.702;7.276;2024-02-26T09:50:01;10.10;63.40
19947;DHT22;10135;50.702;7.276;2024-02-26T09:52:04;10.00;63.40
19947;DHT22;10135;50.702;7.276;2024-02-26T09:54:09;10.10;63.40
19947;DHT22;10135;50.702;7.276;2024-02-26T09:56:11;10.10;63.40
19947;DHT22;10135;50.702;7.276;2024-02-26T09:58:16;10.10;63.50
19947;DHT22;10135;50.702;7.276;2024-02-26T10:00:20;10.10;63.50
19947;DHT22;10135;50.702;7.276;2024-02-26T10:02:22;10.10;63.60
19947;DHT22;10135;50.702;7.276;2024-02-26T10:04:24;10.10;63.60
19947;DHT22;10135;50.702;7.276;2024-02-26T10:06:26;10.10;63.60
19947;DHT22;10135;50.702;7.276;2024-02-26T10:08:28;10.20;63.60
19947;DHT22;10135;50.702;7.276;2024-02-26T10:10:30;10.20;63.60
19947;DHT22;10135;50.702;7.276;2024-02-26T10:12:33;10.20;63.60
19947;DHT22;10135;50.702;7.276;2024-02-26T10:14:33;10.30;63.80
19947;DHT22;10135;50.702;7.276;2024-02-26T10:16:34;10.20;63.60
19947;DHT22;10135;50.702;7.276;2024-02-26T10:18:52;10.30;63.80
19947;DHT22;10135;50.702;7.276;2024-02-26T10:21:00;10.30;64.70
19947;DHT22;10135;50.702;7.276;2024-02-26T10:23:04;10.30;64.00
19947;DHT22;10135;50.702;7.276;2024-02-26T10:25:05;10.40;64.10
19947;DHT22;10135;50.702;7.276;2024-02-26T10:27:06;10.40;64.00
19947;DHT22;10135;50.702;7.276;2024-02-26T10:29:09;10.40;63.80
19947;DHT22;10135;50.702;7.276;2024-02-26T10:31:10;10.50;64.00
19947;DHT22;10135;50.702;7.276;2024-02-26T10:33:11;10.50;64.10
19947;DHT22;10135;50.702;7.276;2024-02-26T10:35:16;10.50;64.10
19947;DHT22;10135;50.702;7.276;2024-02-26T10:37:18;10.60;64.80
19947;DHT22;10135;50.702;7.276;2024-02-26T10:39:18;10.60;64.00
19947;DHT22;10135;50.702;7.276;2024-02-26T10:41:19;10.60;63.90
19947;DHT22;10135;50.702;7.276;2024-02-26T10:43:20;10.70;64.10
19947;DHT22;10135;50.702;7.276;2024-02-26T10:45:20;10.70;64.10
19947;DHT22;10135;50.702;7.276;2024-02-26T10:47:21;10.80;64.00
19947;DHT22;10135;50.702;7.276;2024-02-26T10:49:22;10.80;64.00
19947;DHT22;10135;50.702;7.276;2024-02-26T10:51:27;10.80;63.90
19947;DHT22;10135;50.702;7.276;2024-02-26T10:53:31;10.80;64.10
19947;DHT22;10135;50.702;7.276;2024-02-26T10:55:35;10.80;63.90
19947;DHT22;10135;50.702;7.276;2024-02-26T10:57:41;10.90;64.00
19947;DHT22;10135;50.702;7.276;2024-02-26T10:59:44;10.80;64.00
19947;DHT22;10135;50.702;7.276;2024-02-26T11:01:45;10.90;63.90
19947;DHT22;10135;50.702;7.276;2024-02-26T11:03:49;10.90;63.90
19947;DHT22;10135;50.702;7.276;2024-02-26T11:05:51;10.90;64.00
19947;DHT22;10135;50.702;7.276;2024-02-26T11:07:53;10.90;63.80
19947;DHT22;10135;50.702;7.276;2024-02-26T11:09:56;10.90;63.90
19947;DHT22;10135;50.702;7.276;2024-02-26T11:12:00;10.90;63.90
19947;DHT22;10135;50.702;7.276;2024-02-26T11:14:02;10.90;63.80
19947;DHT22;10135;50.702;7.276;2024-02-26T11:16:04;10.90;64.00
19947;DHT22;10135;50.702;7.276;2024-02-26T11:18:07;11.00;64.00
19947;DHT22;10135;50.702;7.276;2024-02-26T11:20:10;10.90;64.00
19947;DHT22;10135;50.702;7.276;2024-02-26T11:22:13;10.90;63.90
19947;DHT22;10135;50.702;7.276;2024-02-26T11:24:15;11.00;64.00
19947;DHT22;10135;50.702;7.276;2024-02-26T11:26:20;10.90;64.00
19947;DHT22;10135;50.702;7.276;2024-02-26T11:28:24;11.00;64.10
19947;DHT22;10135;50.702;7.276;2024-02-26T11:30:30;11.00;64.00
19947;DHT22;10135;50.702;7.276;2024-02-26T11:32:33;11.00;64.20
19947;DHT22;10135;50.702;7.276;2024-02-26T11:34:35;11.00;64.10
19947;DHT22;10135;50.702;7.276;2024-02-26T11:36:37;11.00;64.20
19947;DHT22;10135;50.702;7.276;2024-02-26T11:38:38;11.00;64.20
19947;DHT22;10135;50.702;7.276;2024-02-26T11:40:39;11.00;64.20
19947;DHT22;10135;50.702;7.276;2024-02-26T11:42:44;11.00;64.20
19947;DHT22;10135;50.702;7.276;2024-02-26T11:44:45;11.00;64.30
19947;DHT22;10135;50.702;7.276;2024-02-26T11:46:46;11.10;64.30
19947;DHT22;10135;50.702;7.276;2024-02-26T11:48:48;11.10;64.40
19947;DHT22;10135;50.702;7.276;2024-02-26T11:50:49;11.10;64.50
19947;DHT22;10135;50.702;7.276;2024-02-26T11:53:29;11.10;65.30
19947;DHT22;10135;50.702;7.276;2024-02-26T11:55:32;11.20;65.10
19947;DHT22;10135;50.702;7.276;2024-02-26T11:57:39;11.20;64.50
19947;DHT22;10135;50.702;7.276;2024-02-26T11:59:40;11.20;64.70
19947;DHT22;10135;50.702;7.276;2024-02-26T12:01:46;11.30;64.50
19947;DHT22;10135;50.702;7.276;2024-02-26T12:03:54;11.30;64.70
19947;DHT22;10135;50.702;7.276;2024-02-26T12:05:55;11.30;64.60
19947;DHT22;10135;50.702;7.276;2024-02-26T12:08:03;11.30;64.50
19947;DHT22;10135;50.702;7.276;2024-02-26T12:10:38;11.40;64.60
19947;DHT22;10135;50.702;7.276;2024-02-26T12:12:39;11.40;65.10
19947;DHT22;10135;50.702;7.276;2024-02-26T12:14:51;11.30;64.50
19947;DHT22;10135;50.702;7.276;2024-02-26T12:16:53;11.40;64.90
19947;DHT22;10135;50.702;7.276;2024-02-26T12:18:56;11.40;64.50
19947;DHT22;10135;50.702;7.276;2024-02-26T12:21:02;11.40;64.40
19947;DHT22;10135;50.702;7.276;2024-02-26T12:23:04;11.40;64.70
19947;DHT22;10135;50.702;7.276;2024-02-26T12:25:05;11.40;64.60
19947;DHT22;10135;50.702;7.276;2024-02-26T12:27:06;11.40;64.60
19947;DHT22;10135;50.702;7.276;2024-02-26T12:29:07;11.40;64.60
19947;DHT22;10135;50.702;7.276;2024-02-26T12:31:09;11.30;64.60
19947;DHT22;10135;50.702;7.276;2024-02-26T12:33:10;11.40;64.60
19947;DHT22;10135;50.702;7.276;2024-02-26T12:35:11;11.30;64.70
19947;DHT22;10135;50.702;7.276;2024-02-26T12:37:12;11.30;64.70
19947;DHT22;10135;50.702;7.276;2024-02-26T12:39:13;11.30;64.70
19947;DHT22;10135;50.702;7.276;2024-02-26T12:41:14;11.30;64.80
19947;DHT22;10135;50.702;7.276;2024-02-26T12:43:15;11.30;64.80
19947;DHT22;10135;50.702;7.276;2024-02-26T12:45:16;11.30;64.80
19947;DHT22;10135;50.702;7.276;2024-02-26T12:47:17;11.30;64.90
19947;DHT22;10135;50.702;7.276;2024-02-26T12:49:18;11.30;64.90
19947;DHT22;10135;50.702;7.276;2024-02-26T12:51:19;11.30;64.80
19947;DHT22;10135;50.702;7.276;2024-02-26T12:53:20;11.30;64.90
19947;DHT22;10135;50.702;7.276;2024-02-26T12:55:21;11.30;64.90
19947;DHT22;10135;50.702;7.276;2024-02-26T12:57:22;11.30;64.90
19947;DHT22;10135;50.702;7.276;2024-02-26T12:59:24;11.30;64.90
19947;DHT22;10135;50.702;7.276;2024-02-26T13:01:26;11.30;65.10
19947;DHT22;10135;50.702;7.276;2024-02-26T13:03:27;11.30;65.10
19947;DHT22;10135;50.702;7.276;2024-02-26T13:05:29;11.30;65.10
19947;DHT22;10135;50.702;7.276;2024-02-26T13:07:30;11.30;65.10
19947;DHT22;10135;50.702;7.276;2024-02-26T13:09:34;11.30;65.10
19947;DHT22;10135;50.702;7.276;2024-02-26T13:11:39;11.30;65.30
19947;DHT22;10135;50.702;7.276;2024-02-26T13:13:40;11.20;65.10
19947;DHT22;10135;50.702;7.276;2024-02-26T13:15:41;11.20;65.10
19947;DHT22;10135;50.702;7.276;2024-02-26T13:17:42;11.20;65.10
19947;DHT22;10135;50.702;7.276;2024-02-26T13:19:50;11.20;65.90
19947;DHT22;10135;50.702;7.276;2024-02-26T13:21:51;11.20;65.50
19947;DHT22;10135;50.702;7.276;2024-02-26T13:23:52;11.20;65.20
19947;DHT22;10135;50.702;7.276;2024-02-26T13:25:56;11.20;65.30
19947;DHT22;10135;50.702;7.276;2024-02-26T13:28:17;11.20;65.50
19947;DHT22;10135;50.702;7.276;2024-02-26T13:30:27;11.20;65.80
19947;DHT22;10135;50.702;7.276;2024-02-26T13:32:28;11.20;65.50
19947;DHT22;10135;50.702;7.276;2024-02-26T13:34:31;11.30;65.50
19947;DHT22;10135;50.702;7.276;2024-02-26T13:36:33;11.30;65.60
19947;DHT22;10135;50.702;7.276;2024-02-26T13:48:23;11.40;66.10
19947;DHT22;10135;50.702;7.276;2024-02-26T13:50:24;11.40;65.40
19947;DHT22;10135;50.702;7.276;2024-02-26T13:52:24;11.40;65.50
19947;DHT22;10135;50.702;7.276;2024-02-26T13:54:26;11.50;65.60
19947;DHT22;10135;50.702;7.276;2024-02-26T13:56:26;11.50;65.50
19947;DHT22;10135;50.702;7.276;2024-02-26T13:58:27;11.50;65.60
19947;DHT22;10135;50.702;7.276;2024-02-26T14:00:31;11.50;65.50
19947;DHT22;10135;50.702;7.276;2024-02-26T14:02:35;11.50;65.50
19947;DHT22;10135;50.702;7.276;2024-02-26T14:04:37;11.50;65.60
19947;DHT22;10135;50.702;7.276;2024-02-26T14:06:39;11.50;65.60
19947;DHT22;10135;50.702;7.276;2024-02-26T14:08:40;11.50;65.60
19947;DHT22;10135;50.702;7.276;2024-02-26T14:10:40;11.50;65.60
19947;DHT22;10135;50.702;7.276;2024-02-26T14:12:41;11.50;65.60
19947;DHT22;10135;50.702;7.276;2024-02-26T14:14:42;11.50;65.60
19947;DHT22;10135;50.702;7.276;2024-02-26T14:16:43;11.50;65.60
19947;DHT22;10135;50.702;7.276;2024-02-26T14:18:43;11.50;65.60
19947;DHT22;10135;50.702;7.276;2024-02-26T14:20:45;11.60;65.70
19947;DHT22;10135;50.702;7.276;2024-02-26T14:22:46;11.60;65.70
19947;DHT22;10135;50.702;7.276;2024-02-26T14:24:47;11.60;65.60
19947;DHT22;10135;50.702;7.276;2024-02-26T14:26:48;11.60;65.60
19947;DHT22;10135;50.702;7.276;2024-02-26T14:28:49;11.60;65.60
19947;DHT22;10135;50.702;7.276;2024-02-26T14:30:49;11.60;65.60
19947;DHT22;10135;50.702;7.276;2024-02-26T14:32:50;11.60;65.60
19947;DHT22;10135;50.702;7.276;2024-02-26T14:34:51;11.60;65.60
19947;DHT22;10135;50.702;7.276;2024-02-26T14:36:51;11.60;65.60
19947;DHT22;10135;50.702;7.276;2024-02-26T14:38:52;11.60;65.50
19947;DHT22;10135;50.702;7.276;2024-02-26T14:40:52;11.60;65.60
19947;DHT22;10135;50.702;7.276;2024-02-26T14:42:53;11.50;65.50
19947;DHT22;10135;50.702;7.276;2024-02-26T14:44:54;11.50;65.60
19947;DHT22;10135;50.702;7.276;2024-02-26T14:46:54;11.50;65.60
19947;DHT22;10135;50.702;7.276;2024-02-26T14:48:55;11.50;65.60
19947;DHT22;10135;50.702;7.276;2024-02-26T14:50:56;11.50;65.60
19947;DHT22;10135;50.702;7.276;2024-02-26T14:52:56;11.50;65.60
19947;DHT22;10135;50.702;7.276;2024-02-26T14:54:58;11.50;65.60
19947;DHT22;10135;50.702;7.276;2024-02-26T14:56:59;11.50;65.70
19947;DHT22;10135;50.702;7.276;2024-02-26T14:59:00;11.50;65.70
19947;DHT22;10135;50.702;7.276;2024-02-26T15:01:00;11.50;65.70
19947;DHT22;10135;50.702;7.276;2024-02-26T15:03:01;11.50;65.70
19947;DHT22;10135;50.702;7.276;2024-02-26T15:05:02;11.50;65.80
19947;DHT22;10135;50.702;7.276;2024-02-26T15:07:04;11.50;65.90
19947;DHT22;10135;50.702;7.276;2024-02-26T15:09:05;11.40;65.70
19947;DHT22;10135;50.702;7.276;2024-02-26T15:11:05;11.40;65.80
19947;DHT22;10135;50.702;7.276;2024-02-26T15:13:07;11.50;65.90
19947;DHT22;10135;50.702;7.276;2024-02-26T15:15:08;11.40;65.90
19947;DHT22;10135;50.702;7.276;2024-02-26T15:17:08;11.40;65.90
19947;DHT22;10135;50.702;7.276;2024-02-26T15:19:10;11.40;65.90
19947;DHT22;10135;50.702;7.276;2024-02-26T15:28:40;11.40;65.90
19947;DHT22;10135;50.702;7.276;2024-02-26T15:30:41;11.50;65.90
19947;DHT22;10135;50.702;7.276;2024-02-26T15:32:42;11.40;65.90
19947;DHT22;10135;50.702;7.276;2024-02-26T15:34:43;11.50;66.00
19947;DHT22;10135;50.702;7.276;2024-02-26T15:36:44;11.50;66.00
19947;DHT22;10135;50.702;7.276;2024-02-26T15:38:47;11.50;66.10
19947;DHT22;10135;50.702;7.276;2024-02-26T15:40:48;11.50;66.10
19947;DHT22;10135;50.702;7.276;2024-02-26T15:42:49;11.50;66.10
19947;DHT22;10135;50.702;7.276;2024-02-26T15:44:50;11.50;66.10
19947;DHT22;10135;50.702;7.276;2024-02-26T15:46:50;11.50;66.10
19947;DHT22;10135;50.702;7.276;2024-02-26T15:48:51;11.50;66.10
19947;DHT22;10135;50.702;7.276;2024-02-26T15:50:52;11.50;66.10
19947;DHT22;10135;50.702;7.276;2024-02-26T15:52:52;11.50;66.10
19947;DHT22;10135;50.702;7.276;2024-02-26T15:54:55;11.50;66.10
19947;DHT22;10135;50.702;7.276;2024-02-26T15:56:55;11.60;66.10
19947;DHT22;10135;50.702;7.276;2024-02-26T15:58:56;11.50;66.10
19947;DHT22;10135;50.702;7.276;2024-02-26T16:00:57;11.50;66.10
19947;DHT22;10135;50.702;7.276;2024-02-26T16:02:58;11.50;66.10
19947;DHT22;10135;50.702;7.276;2024-02-26T16:04:59;11.50;66.10
19947;DHT22;10135;50.702;7.276;2024-02-26T16:07:04;11.60;66.30
19947;DHT22;10135;50.702;7.276;2024-02-26T16:09:12;11.60;66.40
19947;DHT22;10135;50.702;7.276;2024-02-26T16:11:13;11.60;66.10
19947;DHT22;10135;50.702;7.276;2024-02-26T16:13:14;11.60;66.20
19947;DHT22;10135;50.702;7.276;2024-02-26T16:15:15;11.60;66.10
19947;DHT22;10135;50.702;7.276;2024-02-26T16:17:24;11.60;66.20
19947;DHT22;10135;50.702;7.276;2024-02-26T16:19:40;11.60;66.30
19947;DHT22;10135;50.702;7.276;2024-02-26T16:21:41;11.60;66.50
19947;DHT22;10135;50.702;7.276;2024-02-26T16:23:42;11.60;66.20
19947;DHT22;10135;50.702;7.276;2024-02-26T16:25:42;11.60;66.10
19947;DHT22;10135;50.702;7.276;2024-02-26T16:27:43;11.60;66.20
19947;DHT22;10135;50.702;7.276;2024-02-26T16:29:44;11.60;66.20
19947;DHT22;10135;50.702;7.276;2024-02-26T16:31:45;11.60;66.20
19947;DHT22;10135;50.702;7.276;2024-02-26T16:33:46;11.60;66.20
19947;DHT22;10135;50.702;7.276;2024-02-26T16:35:46;11.70;66.30
19947;DHT22;10135;50.702;7.276;2024-02-26T16:37:47;11.70;66.20
19947;DHT22;10135;50.702;7.276;2024-02-26T16:39:48;11.70;66.30
19947;DHT22;10135;50.702;7.276;2024-02-26T16:41:49;11.70;66.30
19947;DHT22;10135;50.702;7.276;2024-02-26T16:43:50;11.70;66.30
19947;DHT22;10135;50.702;7.276;2024-02-26T16:45:50;11.70;66.20
19947;DHT22;10135;50.702;7.276;2024-02-26T16:47:51;11.70;66.20
19947;DHT22;10135;50.702;7.276;2024-02-26T16:49:52;11.70;66.30
19947;DHT22;10135;50.702;7.276;2024-02-26T16:51:53;11.70;66.30
19947;DHT22;10135;50.702;7.276;2024-02-26T16:53:53;11.80;66.30
19947;DHT22;10135;50.702;7.276;2024-02-26T16:55:54;11.70;66.30
19947;DHT22;10135;50.702;7.276;2024-02-26T16:58:02;11.70;66.30
19947;DHT22;10135;50.702;7.276;2024-02-26T17:00:04;11.70;67.00
19947;DHT22;10135;50.702;7.276;2024-02-26T17:02:06;11.70;66.50
19947;DHT22;10135;50.702;7.276;2024-02-26T17:04:07;11.70;66.40
19947;DHT22;10135;50.702;7.276;2024-02-26T17:06:08;11.70;66.50
19947;DHT22;10135;50.702;7.276;2024-02-26T17:08:09;11.80;66.40
19947;DHT22;10135;50.702;7.276;2024-02-26T17:10:11;11.80;66.40
19947;DHT22;10135;50.702;7.276;2024-02-26T17:12:12;11.80;66.50
19947;DHT22;10135;50.702;7.276;2024-02-26T17:14:13;11.80;66.50
19947;DHT22;10135;50.702;7.276;2024-02-26T17:16:15;11.80;66.50
19947;DHT22;10135;50.702;7.276;2024-02-26T17:18:16;11.80;66.50
19947;DHT22;10135;50.702;7.276;2024-02-26T17:20:17;11.80;66.50
19947;DHT22;10135;50.702;7.276;2024-02-26T17:22:17;11.80;66.50
19947;DHT22;10135;50.702;7.276;2024-02-26T17:24:18;11.80;66.50
19947;DHT22;10135;50.702;7.276;2024-02-26T17:26:19;11.80;66.50
19947;DHT22;10135;50.702;7.276;2024-02-26T17:28:25;11.80;66.50
19947;DHT22;10135;50.702;7.276;2024-02-26T17:30:26;11.80;66.50
19947;DHT22;10135;50.702;7.276;2024-02-26T17:32:26;11.80;66.50
19947;DHT22;10135;50.702;7.276;2024-02-26T17:34:27;11.80;66.50
19947;DHT22;10135;50.702;7.276;2024-02-26T17:36:28;11.80;66.50
19947;DHT22;10135;50.702;7.276;2024-02-26T17:38:28;11.80;66.50
19947;DHT22;10135;50.702;7.276;2024-02-26T17:40:30;11.80;66.50
19947;DHT22;10135;50.702;7.276;2024-02-26T17:42:32;11.80;67.40
19947;DHT22;10135;50.702;7.276;2024-02-26T17:44:39;11.80;66.50
19947;DHT22;10135;50.702;7.276;2024-02-26T17:46:39;11.80;66.70
19947;DHT22;10135;50.702;7.276;2024-02-26T17:48:40;11.80;66.50
19947;DHT22;10135;50.702;7.276;2024-02-26T17:50:44;11.80;66.50
19947;DHT22;10135;50.702;7.276;2024-02-26T17:52:45;11.80;66.50
19947;DHT22;10135;50.702;7.276;2024-02-26T17:54:45;11.80;66.60
19947;DHT22;10135;50.702;7.276;2024-02-26T17:56:46;11.80;66.60
19947;DHT22;10135;50.702;7.276;2024-02-26T17:58:47;11.80;66.60
19947;DHT22;10135;50.702;7.276;2024-02-26T18:00:48;11.80;66.60
19947;DHT22;10135;50.702;7.276;2024-02-26T18:02:48;11.80;66.60
19947;DHT22;10135;50.702;7.276;2024-02-26T18:04:49;11.80;66.60
19947;DHT22;10135;50.702;7.276;2024-02-26T18:06:50;11.80;66.60
19947;DHT22;10135;50.702;7.276;2024-02-26T18:08:51;11.80;66.50
19947;DHT22;10135;50.702;7.276;2024-02-26T18:10:51;11.80;66.50
19947;DHT22;10135;50.702;7.276;2024-02-26T18:12:52;11.80;66.50
19947;DHT22;10135;50.702;7.276;2024-02-26T18:14:53;11.80;66.60
19947;DHT22;10135;50.702;7.276;2024-02-26T18:16:54;11.80;66.60
19947;DHT22;10135;50.702;7.276;2024-02-26T18:18:55;11.80;66.60
19947;DHT22;10135;50.702;7.276;2024-02-26T18:20:56;11.80;66.60
19947;DHT22;10135;50.702;7.276;2024-02-26T18:22:57;11.80;66.60
19947;DHT22;10135;50.702;7.276;2024-02-26T18:24:57;11.80;66.60
19947;DHT22;10135;50.702;7.276;2024-02-26T18:26:58;11.80;66.70
19947;DHT22;10135;50.702;7.276;2024-02-26T18:28:58;11.80;66.70
19947;DHT22;10135;50.702;7.276;2024-02-26T18:30:59;11.70;66.50
19947;DHT22;10135;50.702;7.276;2024-02-26T18:33:00;11.70;66.60
19947;DHT22;10135;50.702;7.276;2024-02-26T18:35:01;11.80;66.60
19947;DHT22;10135;50.702;7.276;2024-02-26T18:37:03;11.70;66.50
19947;DHT22;10135;50.702;7.276;2024-02-26T18:39:04;11.70;66.60
19947;DHT22;10135;50.702;7.276;2024-02-26T18:41:05;11.70;66.60
19947;DHT22;10135;50.702;7.276;2024-02-26T18:43:05;11.70;66.50
19947;DHT22;10135;50.702;7.276;2024-02-26T18:45:06;11.70;66.50
19947;DHT22;10135;50.702;7.276;2024-02-26T18:47:07;11.70;66.60
19947;DHT22;10135;50.702;7.276;2024-02-26T18:49:08;11.70;66.60
19947;DHT22;10135;50.702;7.276;2024-02-26T18:51:11;11.70;66.70
19947;DHT22;10135;50.702;7.276;2024-02-26T18:53:12;11.70;66.70
19947;DHT22;10135;50.702;7.276;2024-02-26T18:55:13;11.70;66.70
19947;DHT22;10135;50.702;7.276;2024-02-26T18:57:14;11.70;66.70
19947;DHT22;10135;50.702;7.276;2024-02-26T18:59:14;11.70;66.70
19947;DHT22;10135;50.702;7.276;2024-02-26T19:01:17;11.70;66.70
19947;DHT22;10135;50.702;7.276;2024-02-26T19:03:18;11.70;66.70
19947;DHT22;10135;50.702;7.276;2024-02-26T19:05:19;11.70;66.70
19947;DHT22;10135;50.702;7.276;2024-02-26T19:07:25;11.70;66.80